| Date | Time | Temp. (oF) | Dew Point (oF) | Rel. Hum. (%) | Press. (in.) | Wind Dir. | Wind Speed (mph) | Hourly Rainfall (in.) |
|
|---|---|---|---|---|---|---|---|---|---|
| 1 | 09/02 | 00:00 | 66 | 54 | 67 | 29.94 | NNE | 6 | 0.00 |
| 2 | 09/01 | 23:00 | 67 | 55 | 66 | 29.92 | NNE | 8 | 0.00 |
| 3 | 09/01 | 22:00 | 69 | 57 | 66 | 29.91 | NNE | 4 | 0.00 |
| 4 | 09/01 | 21:00 | 71 | 58 | 64 | 29.88 | NNE | 4 | 0.00 |
| 5 | 09/01 | 20:00 | 72 | 59 | 65 | 29.85 | SW | 0 | 0.00 |
| 6 | 09/01 | 19:00 | 76 | 60 | 59 | 29.81 | NNE | 6 | 0.00 |
| 7 | 09/01 | 18:00 | 78 | 60 | 56 | 29.80 | NNE | 6 | 0.00 |
| 8 | 09/01 | 17:00 | 80 | 66 | 63 | 29.79 | NE | 4 | 0.00 |
| 9 | 09/01 | 16:00 | 80 | 64 | 60 | 29.79 | N | 7 | 0.00 |
| 10 | 09/01 | 15:00 | 78 | 67 | 71 | 29.79 | NNE | 4 | 0.00 |
| 11 | 09/01 | 14:00 | 75 | 69 | 83 | 29.80 | NNE | 6 | 0.01 |
| 12 | 09/01 | 13:00 | 74 | 67 | 81 | 29.80 | NE | 6 | 0.00 |
| 13 | 09/01 | 12:00 | 75 | 68 | 81 | 29.80 | NNE | 5 | 0.00 |
| 14 | 09/01 | 11:00 | 74 | 69 | 87 | 29.80 | NNE | 2 | 0.00 |
| 15 | 09/01 | 10:00 | 71 | 70 | 98 | 29.80 | SSW | 0 | 0.00 |
| 16 | 09/01 | 09:00 | 70 | 69 | 99 | 29.80 | N | 0 | 0.02 |
| 17 | 09/01 | 08:00 | 69 | 68 | 99 | 29.79 | SE | 0 | 0.02 |
| 18 | 09/01 | 07:00 | 69 | 68 | 99 | 29.79 | NNW | 0 | 0.01 |
| 19 | 09/01 | 06:00 | 69 | 68 | 99 | 29.78 | NNE | 0 | 0.02 |
| 20 | 09/01 | 05:00 | 69 | 68 | 99 | 29.77 | SSE | 0 | 0.00 |
| 21 | 09/01 | 04:00 | 69 | 68 | 98 | 29.77 | ESE | 0 | 0.00 |
| 22 | 09/01 | 03:00 | 69 | 68 | 98 | 29.79 | NNE | 0 | 0.00 |
| 23 | 09/01 | 02:00 | 70 | 69 | 98 | 29.80 | SSE | 0 | 0.03 |
| 24 | 09/01 | 01:00 | 70 | 69 | 99 | 29.82 | SE | 5 | 0.02 |